createdAt,value
2018-03-29T00:00:28.524Z,8.85
2018-03-29T00:02:56.494Z,7.87
2018-03-29T00:05:26.004Z,8.50
2018-03-29T00:07:56.034Z,8.00
2018-03-29T00:10:24.578Z,7.90
2018-03-29T00:12:54.101Z,6.87
2018-03-29T00:15:23.938Z,5.60
2018-03-29T00:17:54.860Z,8.10
2018-03-29T00:20:22.672Z,6.03
2018-03-29T00:22:51.365Z,6.70
2018-03-29T00:25:20.049Z,6.70
2018-03-29T00:27:47.545Z,5.27
2018-03-29T00:30:15.137Z,5.70
2018-03-29T00:32:45.448Z,4.70
2018-03-29T00:35:15.416Z,6.10
2018-03-29T00:37:43.395Z,6.85
2018-03-29T00:40:11.398Z,6.32
2018-03-29T00:42:40.040Z,7.43
2018-03-29T00:45:07.706Z,6.60
2018-03-29T00:47:36.240Z,4.73
2018-03-29T00:50:03.842Z,4.97
2018-03-29T00:52:31.408Z,4.77
2018-03-29T00:54:59.010Z,3.60
2018-03-29T00:57:26.575Z,5.03
2018-03-29T00:59:54.131Z,3.50
2018-03-29T01:02:21.702Z,3.70
2018-03-29T01:04:49.241Z,3.83
2018-03-29T01:07:16.828Z,3.95
2018-03-29T01:09:44.767Z,3.90
2018-03-29T01:12:12.349Z,4.80
2018-03-29T01:14:41.007Z,5.27
2018-03-29T01:17:08.627Z,6.35
2018-03-29T01:19:36.187Z,4.97
2018-03-29T01:22:03.765Z,4.70
2018-03-29T01:24:31.349Z,4.10
2018-03-29T01:26:58.947Z,4.20
2018-03-29T01:29:26.891Z,4.90
2018-03-29T01:31:54.519Z,4.90
2018-03-29T01:34:22.061Z,4.23
2018-03-29T01:36:49.645Z,4.63
2018-03-29T01:39:17.470Z,4.83
2018-03-29T01:41:46.086Z,8.27
2018-03-29T01:44:13.650Z,6.43
2018-03-29T01:46:41.307Z,6.13
2018-03-29T01:49:08.903Z,6.43
2018-03-29T01:51:36.457Z,6.07
2018-03-29T01:54:04.012Z,9.80
2018-03-29T01:56:31.746Z,7.30
2018-03-29T01:58:59.860Z,6.10
2018-03-29T02:01:27.546Z,6.47
2018-03-29T02:03:55.073Z,7.13
2018-03-29T02:06:22.934Z,10.07
2018-03-29T02:08:50.498Z,10.23
2018-03-29T02:11:19.093Z,8.17
2018-03-29T02:13:46.917Z,6.72
2018-03-29T02:16:14.449Z,10.00
2018-03-29T02:18:42.021Z,8.20
2018-03-29T02:21:09.583Z,10.47
2018-03-29T02:23:37.181Z,7.45
2018-03-29T02:26:05.718Z,7.53
2018-03-29T02:28:33.631Z,6.33
2018-03-29T02:31:01.169Z,14.73
2018-03-29T02:33:28.802Z,6.05
2018-03-29T02:35:56.939Z,6.63
2018-03-29T02:38:24.488Z,6.73
2018-03-29T02:40:52.019Z,8.87
2018-03-29T02:43:19.612Z,7.27
2018-03-29T02:45:47.382Z,6.40
2018-03-29T02:48:16.046Z,9.07
2018-03-29T02:50:44.283Z,8.27
2018-03-29T02:53:13.079Z,6.90
2018-03-29T02:55:41.013Z,9.30
2018-03-29T02:58:09.619Z,7.63
2018-03-29T03:00:37.187Z,10.50
2018-03-29T03:03:05.351Z,7.70
2018-03-29T03:05:33.168Z,7.60
2018-03-29T03:08:00.966Z,9.53
2018-03-29T03:10:28.545Z,8.18
2018-03-29T03:12:56.538Z,6.57
2018-03-29T03:15:24.199Z,9.67
2018-03-29T03:17:52.185Z,7.35
2018-03-29T03:20:21.841Z,9.23
2018-03-29T03:22:51.208Z,7.73
2018-03-29T03:25:18.892Z,7.65
2018-03-29T03:27:48.386Z,11.05
2018-03-29T03:30:16.091Z,8.82
2018-03-29T03:32:44.267Z,7.93
2018-03-29T03:35:23.623Z,7.33
2018-03-29T03:37:51.900Z,7.87
2018-03-29T03:40:19.824Z,8.63
2018-03-29T03:42:47.787Z,7.90
2018-03-29T03:45:15.537Z,9.70
2018-03-29T03:47:43.110Z,6.77
2018-03-29T03:50:10.690Z,7.05
2018-03-29T03:52:38.671Z,6.87
2018-03-29T03:55:09.569Z,7.17
2018-03-29T03:57:37.137Z,7.35
2018-03-29T04:00:04.678Z,7.30
2018-03-29T04:02:33.468Z,7.12
2018-03-29T04:05:04.454Z,7.90
2018-03-29T04:07:33.512Z,6.40
2018-03-29T04:10:01.062Z,6.63
2018-03-29T04:12:28.918Z,7.17
2018-03-29T04:15:15.169Z,7.60
2018-03-29T04:17:43.688Z,8.10
2018-03-29T04:20:11.321Z,5.03
2018-03-29T04:22:38.909Z,5.17
2018-03-29T04:25:09.751Z,6.53
2018-03-29T04:27:37.412Z,6.60
2018-03-29T04:30:05.839Z,7.27
2018-03-29T04:32:34.526Z,7.57
2018-03-29T04:35:04.394Z,6.17
2018-03-29T04:37:33.075Z,6.20
2018-03-29T04:40:06.502Z,5.97
2018-03-29T04:42:34.482Z,6.10
2018-03-29T04:45:05.686Z,6.20
2018-03-29T04:47:35.152Z,6.77
2018-03-29T04:50:04.281Z,5.80
2018-03-29T04:52:48.972Z,7.23
2018-03-29T04:55:23.532Z,9.00
2018-03-29T04:57:51.371Z,9.10
2018-03-29T05:00:20.040Z,7.37
2018-03-29T05:02:49.015Z,7.70
2018-03-29T05:05:24.747Z,10.00
2018-03-29T05:07:53.972Z,10.57
2018-03-29T05:10:22.525Z,8.10
2018-03-29T05:12:53.437Z,9.27
2018-03-29T05:15:22.599Z,9.17
2018-03-29T05:17:53.288Z,7.87
2018-03-29T05:20:21.425Z,9.53
2018-03-29T05:22:50.176Z,8.35
2018-03-29T05:25:18.125Z,8.83
2018-03-29T05:27:51.634Z,12.10
2018-03-29T05:30:20.130Z,8.10
2018-03-29T05:32:48.606Z,11.90
2018-03-29T05:35:18.006Z,9.60
2018-03-29T05:37:48.607Z,11.73
2018-03-29T05:40:17.481Z,10.23
2018-03-29T05:42:46.572Z,10.80
2018-03-29T05:45:18.564Z,9.17
2018-03-29T05:47:48.579Z,11.60
2018-03-29T05:50:16.983Z,10.07
2018-03-29T05:52:46.310Z,10.50
2018-03-29T05:55:15.179Z,10.87
2018-03-29T05:57:43.811Z,11.97
2018-03-29T06:00:11.338Z,10.68
2018-03-29T06:02:38.895Z,14.30
2018-03-29T06:05:06.503Z,11.40
2018-03-29T06:07:34.045Z,11.47
2018-03-29T06:10:02.040Z,14.40
2018-03-29T06:12:29.577Z,14.95
2018-03-29T06:14:57.534Z,13.27
2018-03-29T06:17:25.847Z,13.20
2018-03-29T06:19:53.402Z,14.10
2018-03-29T06:22:20.964Z,15.13
2018-03-29T06:24:49.040Z,13.62
2018-03-29T06:27:16.560Z,14.65
2018-03-29T06:29:44.138Z,15.17
2018-03-29T06:32:12.077Z,13.67
2018-03-29T06:34:39.663Z,17.40
2018-03-29T06:37:07.947Z,16.70
2018-03-29T06:39:35.894Z,16.53
2018-03-29T06:42:06.775Z,16.00
2018-03-29T06:44:34.291Z,15.30
2018-03-29T06:47:01.911Z,16.07
2018-03-29T06:49:29.387Z,14.67
2018-03-29T06:51:56.951Z,14.73
2018-03-29T06:54:25.442Z,16.40
2018-03-29T06:56:53.432Z,13.20
2018-03-29T06:59:21.822Z,16.43
2018-03-29T07:01:49.789Z,16.90
2018-03-29T07:04:17.766Z,17.02
2018-03-29T07:06:45.714Z,16.17
2018-03-29T07:09:13.316Z,15.35
2018-03-29T07:11:41.061Z,16.10
2018-03-29T07:14:09.049Z,17.73
2018-03-29T07:16:36.828Z,17.33
2018-03-29T07:19:05.272Z,16.52
2018-03-29T07:21:32.904Z,18.90
2018-03-29T07:24:00.518Z,17.73
2018-03-29T07:26:29.928Z,17.56
2018-03-29T07:28:57.547Z,20.08
2018-03-29T07:31:29.780Z,19.67
2018-03-29T07:33:57.567Z,19.55
2018-03-29T07:36:26.603Z,17.37
2018-03-29T07:38:54.290Z,17.10
2018-03-29T07:41:21.835Z,19.23
2018-03-29T07:43:49.437Z,21.03
2018-03-29T07:46:16.969Z,18.40
2018-03-29T07:48:44.576Z,16.50
2018-03-29T07:51:12.170Z,19.45
2018-03-29T07:53:39.752Z,16.80
2018-03-29T07:56:07.305Z,17.10
2018-03-29T07:58:34.845Z,14.63
2018-03-29T08:01:02.457Z,16.57
2018-03-29T08:03:29.978Z,18.70
2018-03-29T08:05:57.560Z,16.23
2018-03-29T08:08:25.129Z,20.77
2018-03-29T08:10:52.687Z,18.80
2018-03-29T08:13:20.621Z,17.35
2018-03-29T08:15:48.226Z,18.43
2018-03-29T08:18:15.773Z,20.33
2018-03-29T08:20:43.313Z,18.20
2018-03-29T08:23:10.896Z,18.23
2018-03-29T08:25:38.488Z,21.75
2018-03-29T08:28:06.709Z,19.93
2018-03-29T08:30:34.269Z,16.93
2018-03-29T08:33:01.851Z,18.63
2018-03-29T08:35:29.486Z,18.55
2018-03-29T08:37:57.038Z,19.90
2018-03-29T08:40:24.605Z,19.20
2018-03-29T08:42:52.234Z,17.90
2018-03-29T08:45:19.958Z,18.83
2018-03-29T08:47:47.521Z,17.65
2018-03-29T08:50:15.534Z,19.83
2018-03-29T08:52:43.466Z,17.30
2018-03-29T08:55:11.055Z,17.00
2018-03-29T08:57:38.986Z,18.40
2018-03-29T09:00:06.570Z,20.40
2018-03-29T09:02:35.448Z,17.87
2018-03-29T09:05:03.022Z,19.00
2018-03-29T09:07:30.982Z,16.87
2018-03-29T09:09:58.952Z,18.93
2018-03-29T09:12:26.919Z,16.27
2018-03-29T09:14:54.865Z,14.95
2018-03-29T09:17:22.459Z,15.35
2018-03-29T09:19:50.414Z,14.10
2018-03-29T09:22:17.975Z,16.90
2018-03-29T09:24:45.619Z,16.10
2018-03-29T09:27:13.218Z,13.83
2018-03-29T09:29:41.144Z,16.27
2018-03-29T09:32:08.670Z,13.07
2018-03-29T09:34:36.249Z,15.63
2018-03-29T09:37:03.797Z,11.60
2018-03-29T09:39:31.356Z,14.25
2018-03-29T09:41:59.104Z,10.90
2018-03-29T09:44:26.650Z,10.53
2018-03-29T09:46:54.214Z,11.30
2018-03-29T09:49:22.114Z,10.85
2018-03-29T09:51:49.653Z,10.35
2018-03-29T09:54:17.243Z,10.63
2018-03-29T09:56:44.794Z,11.95
2018-03-29T09:59:12.350Z,10.83
2018-03-29T10:01:43.778Z,11.70
2018-03-29T10:04:13.060Z,11.67
2018-03-29T10:06:41.703Z,10.73
2018-03-29T10:09:09.359Z,9.83
2018-03-29T10:11:36.936Z,11.40
2018-03-29T10:14:04.523Z,12.93
2018-03-29T10:16:33.043Z,7.03
2018-03-29T10:19:00.611Z,11.43
2018-03-29T10:21:28.172Z,9.50
2018-03-29T10:23:56.663Z,11.73
2018-03-29T10:26:24.276Z,10.33
2018-03-29T10:28:52.229Z,13.93
2018-03-29T10:31:20.397Z,10.38
2018-03-29T10:33:47.974Z,12.20
2018-03-29T10:36:15.514Z,10.33
2018-03-29T10:38:43.107Z,11.07
2018-03-29T10:41:10.670Z,13.03
2018-03-29T10:43:38.269Z,10.77
2018-03-29T10:46:06.656Z,10.98
2018-03-29T10:48:34.285Z,13.90
2018-03-29T10:51:02.930Z,12.88
2018-03-29T10:53:30.560Z,12.07
2018-03-29T10:55:58.151Z,10.80
2018-03-29T10:58:26.118Z,14.13
2018-03-29T11:00:54.097Z,9.43
2018-03-29T11:03:22.021Z,11.10
2018-03-29T11:05:49.593Z,11.23
2018-03-29T11:08:17.195Z,10.10
2018-03-29T11:10:45.269Z,9.40
2018-03-29T11:13:12.893Z,16.13
2018-03-29T11:15:40.431Z,11.10
2018-03-29T11:18:08.022Z,8.57
2018-03-29T11:20:36.065Z,10.57
2018-03-29T11:23:03.626Z,10.15
2018-03-29T11:25:31.178Z,8.23
2018-03-29T11:27:59.820Z,9.68
2018-03-29T11:30:27.866Z,9.87
2018-03-29T11:32:55.399Z,7.50
2018-03-29T11:35:22.962Z,10.20
2018-03-29T11:37:51.516Z,8.33
2018-03-29T11:40:19.067Z,6.70
2018-03-29T11:42:46.732Z,6.45
2018-03-29T11:45:14.317Z,8.63
2018-03-29T11:47:41.952Z,8.75
2018-03-29T11:50:09.513Z,7.07
2018-03-29T11:52:37.054Z,8.00
2018-03-29T11:55:05.017Z,7.93
2018-03-29T11:57:32.577Z,7.00
2018-03-29T12:00:00.130Z,7.33
2018-03-29T12:02:28.079Z,5.03
2018-03-29T12:04:55.661Z,4.40
2018-03-29T12:07:24.236Z,6.28
2018-03-29T12:09:52.170Z,4.60
2018-03-29T12:12:19.809Z,5.70
2018-03-29T12:14:47.364Z,4.67
2018-03-29T12:17:14.951Z,3.63
2018-03-29T12:19:42.502Z,3.40
2018-03-29T12:22:10.048Z,4.03
2018-03-29T12:24:37.611Z,5.17
2018-03-29T12:27:05.170Z,3.47
2018-03-29T12:29:32.727Z,3.70
2018-03-29T12:32:00.304Z,4.03
2018-03-29T12:34:28.429Z,3.80
2018-03-29T12:36:56.425Z,7.80
2018-03-29T12:39:24.035Z,4.10
2018-03-29T12:41:52.002Z,4.10
2018-03-29T12:44:19.546Z,4.87
2018-03-29T12:46:47.095Z,3.05
2018-03-29T12:49:14.633Z,2.97
2018-03-29T12:51:42.255Z,2.10
2018-03-29T12:54:09.822Z,2.50
2018-03-29T12:56:49.493Z,2.90
2018-03-29T12:59:17.107Z,3.33
2018-03-29T13:01:44.670Z,3.40
2018-03-29T13:04:12.249Z,2.70
2018-03-29T13:06:39.808Z,6.27
2018-03-29T13:09:07.773Z,3.13
2018-03-29T13:11:35.751Z,1.80
2018-03-29T13:14:03.312Z,2.20
2018-03-29T13:16:30.877Z,1.93
2018-03-29T13:18:58.796Z,2.07
2018-03-29T13:21:26.359Z,2.00
2018-03-29T13:23:53.914Z,2.10
2018-03-29T13:26:21.460Z,2.77
2018-03-29T13:28:48.994Z,4.35
2018-03-29T13:31:16.553Z,3.58
2018-03-29T13:33:44.117Z,2.70
2018-03-29T13:36:11.693Z,2.25
2018-03-29T13:38:39.283Z,8.03
2018-03-29T13:41:06.859Z,2.77
2018-03-29T13:43:34.385Z,2.30
2018-03-29T13:46:02.008Z,2.83
2018-03-29T13:48:30.145Z,4.13
2018-03-29T13:50:57.803Z,2.67
2018-03-29T13:53:25.377Z,2.73
2018-03-29T13:55:52.945Z,3.00
2018-03-29T13:58:20.921Z,3.20
2018-03-29T14:00:48.555Z,4.15
2018-03-29T14:03:16.166Z,2.80
2018-03-29T14:05:43.739Z,3.72
2018-03-29T14:08:11.365Z,4.03
2018-03-29T14:10:39.367Z,3.17
2018-03-29T14:13:06.941Z,4.37
2018-03-29T14:15:34.545Z,2.90
2018-03-29T14:18:02.595Z,2.57
2018-03-29T14:20:30.159Z,3.30
2018-03-29T14:22:57.765Z,2.93
2018-03-29T14:25:25.321Z,3.23
2018-03-29T14:27:53.838Z,3.05
2018-03-29T14:30:21.393Z,3.13
2018-03-29T14:32:48.957Z,5.07
2018-03-29T14:35:16.545Z,2.50
2018-03-29T14:37:44.122Z,5.80
2018-03-29T14:40:11.714Z,3.77
2018-03-29T14:42:39.280Z,2.50
2018-03-29T14:45:06.819Z,3.00
2018-03-29T14:47:34.408Z,4.10
2018-03-29T14:50:02.127Z,3.03
2018-03-29T14:52:30.106Z,2.70
2018-03-29T14:54:57.757Z,2.17
2018-03-29T14:57:26.781Z,2.37
2018-03-29T14:59:54.750Z,2.67
2018-03-29T15:02:22.342Z,2.07
2018-03-29T15:04:50.778Z,3.05
2018-03-29T15:07:18.451Z,1.57
2018-03-29T15:09:46.078Z,1.60
2018-03-29T15:12:13.672Z,2.45
2018-03-29T15:14:41.465Z,1.87
2018-03-29T15:17:09.362Z,1.73
2018-03-29T15:19:37.306Z,2.40
2018-03-29T15:22:04.893Z,2.10
2018-03-29T15:24:32.474Z,1.73
2018-03-29T15:27:00.490Z,1.60
2018-03-29T15:29:28.046Z,2.15
2018-03-29T15:31:55.632Z,1.63
2018-03-29T15:34:23.209Z,1.97
2018-03-29T15:36:51.136Z,5.10
2018-03-29T15:39:18.751Z,5.27
2018-03-29T15:41:46.353Z,2.00
2018-03-29T15:44:13.890Z,2.23
2018-03-29T15:46:41.495Z,2.50
2018-03-29T15:49:09.091Z,2.80
2018-03-29T15:51:36.680Z,2.57
2018-03-29T15:54:04.258Z,2.33
2018-03-29T15:56:31.815Z,2.23
2018-03-29T15:58:59.410Z,2.53
2018-03-29T16:01:27.025Z,2.20
2018-03-29T16:03:54.625Z,2.60
2018-03-29T16:06:22.182Z,2.47
2018-03-29T16:08:50.124Z,2.35
2018-03-29T16:11:17.723Z,2.40
2018-03-29T16:13:45.299Z,2.80
2018-03-29T16:16:12.898Z,2.67
2018-03-29T16:18:40.473Z,3.10
2018-03-29T16:21:08.027Z,2.70
2018-03-29T16:23:35.593Z,2.83
2018-03-29T16:26:03.451Z,2.90
2018-03-29T16:28:31.087Z,2.37
2018-03-29T16:30:58.655Z,2.30
2018-03-29T16:33:26.237Z,2.83
2018-03-29T16:35:53.817Z,2.23
2018-03-29T16:38:21.397Z,2.10
2018-03-29T16:40:49.368Z,1.53
2018-03-29T16:43:17.385Z,3.27
2018-03-29T16:45:45.032Z,2.62
2018-03-29T16:48:12.589Z,2.40
2018-03-29T16:50:40.682Z,2.63
2018-03-29T16:53:08.299Z,2.43
2018-03-29T16:55:36.232Z,2.60
2018-03-29T16:58:03.798Z,2.85
2018-03-29T17:00:31.346Z,2.80
2018-03-29T17:02:59.209Z,2.90
2018-03-29T17:05:26.761Z,2.60
2018-03-29T17:07:54.337Z,4.30
2018-03-29T17:10:21.904Z,2.37
2018-03-29T17:12:49.470Z,2.90
2018-03-29T17:15:17.424Z,2.97
2018-03-29T17:17:44.978Z,2.80
2018-03-29T17:20:12.527Z,6.80
2018-03-29T17:22:40.696Z,2.60
2018-03-29T17:25:08.244Z,3.13
2018-03-29T17:27:35.817Z,2.87
2018-03-29T17:30:03.369Z,2.27
2018-03-29T17:32:30.925Z,3.77
2018-03-29T17:34:58.456Z,5.27
2018-03-29T17:37:26.082Z,4.07
2018-03-29T17:39:53.610Z,3.10
2018-03-29T17:42:21.146Z,3.03
2018-03-29T17:44:48.707Z,2.90
2018-03-29T17:47:16.265Z,2.63
2018-03-29T17:49:43.841Z,2.97
2018-03-29T17:52:11.391Z,3.10
2018-03-29T17:54:38.944Z,2.70
2018-03-29T17:57:06.523Z,3.30
2018-03-29T17:59:34.046Z,5.03
2018-03-29T18:02:01.614Z,3.35
2018-03-29T18:04:29.170Z,3.20
2018-03-29T18:06:56.724Z,2.90
2018-03-29T18:09:24.280Z,5.53
2018-03-29T18:11:52.390Z,3.80
2018-03-29T18:14:20.026Z,2.85
2018-03-29T18:16:48.815Z,2.80
2018-03-29T18:19:16.843Z,4.60
2018-03-29T18:21:44.854Z,3.43
2018-03-29T18:24:14.005Z,3.23
2018-03-29T19:27:23.551Z,10.68
2018-03-29T19:54:15.836Z,8.55
2018-03-29T20:46:57.330Z,7.03
2018-03-29T20:58:31.178Z,10.43
2018-03-29T21:06:51.246Z,16.10
